createdAt,value
2018-02-27T00:00:44.903Z,81.74
2018-02-27T00:01:44.813Z,81.93
2018-02-27T00:03:36.519Z,81.74
2018-02-27T00:04:36.444Z,81.74
2018-02-27T00:06:28.217Z,81.56
2018-02-27T00:07:28.112Z,81.93
2018-02-27T00:09:19.834Z,81.93
2018-02-27T00:10:19.758Z,82.68
2018-02-27T00:12:11.497Z,82.68
2018-02-27T00:13:11.402Z,82.68
2018-02-27T00:15:03.190Z,82.68
2018-02-27T00:16:03.109Z,82.68
2018-02-27T00:17:54.853Z,82.40
2018-02-27T00:18:54.763Z,82.68
2018-02-27T00:20:46.482Z,82.59
2018-02-27T00:21:46.407Z,82.87
2018-02-27T00:23:38.168Z,82.87
2018-02-27T00:24:38.080Z,83.25
2018-02-27T00:26:29.807Z,83.34
2018-02-27T00:27:29.752Z,83.25
2018-02-27T00:29:21.462Z,83.15
2018-02-27T00:30:21.377Z,83.62
2018-02-27T00:32:13.113Z,83.25
2018-02-27T00:33:13.035Z,83.44
2018-02-27T00:35:04.765Z,83.34
2018-02-27T00:36:04.686Z,83.53
2018-02-27T00:37:56.408Z,84.00
2018-02-27T00:38:56.331Z,83.91
2018-02-27T00:40:48.564Z,83.91
2018-02-27T00:41:48.476Z,84.09
2018-02-27T00:43:40.269Z,84.09
2018-02-27T00:44:40.165Z,83.91
2018-02-27T00:46:31.910Z,83.72
2018-02-27T00:47:31.837Z,84.38
2018-02-27T00:49:23.564Z,84.28
2018-02-27T00:50:23.472Z,84.38
2018-02-27T00:52:15.206Z,83.91
2018-02-27T00:53:15.134Z,83.72
2018-02-27T00:55:06.895Z,83.81
2018-02-27T00:56:06.814Z,83.81
2018-02-27T00:57:58.508Z,83.91
2018-02-27T00:58:58.429Z,84.09
2018-02-27T01:00:50.157Z,84.09
2018-02-27T01:01:50.069Z,84.09
2018-02-27T01:03:41.811Z,83.91
2018-02-27T01:04:41.727Z,84.09
2018-02-27T01:06:33.468Z,84.00
2018-02-27T01:07:33.376Z,83.81
2018-02-27T01:09:25.103Z,84.47
2018-02-27T01:10:25.032Z,84.19
2018-02-27T01:12:16.757Z,84.38
2018-02-27T01:13:16.673Z,84.38
2018-02-27T01:15:08.415Z,84.28
2018-02-27T01:16:08.334Z,84.28
2018-02-27T01:18:00.076Z,84.09
2018-02-27T01:18:59.993Z,84.47
2018-02-27T01:20:51.739Z,84.19
2018-02-27T01:21:51.649Z,84.19
2018-02-27T01:23:43.365Z,83.34
2018-02-27T01:24:43.294Z,83.53
2018-02-27T01:26:35.036Z,83.91
2018-02-27T01:27:34.949Z,83.91
2018-02-27T01:29:26.695Z,84.85
2018-02-27T01:30:26.624Z,84.38
2018-02-27T01:32:18.365Z,84.75
2018-02-27T01:33:18.277Z,85.60
2018-02-27T01:35:10.009Z,84.66
2018-02-27T01:36:09.933Z,84.85
2018-02-27T01:38:01.665Z,84.94
2018-02-27T01:39:01.578Z,85.13
2018-02-27T01:40:53.299Z,84.47
2018-02-27T01:41:53.225Z,83.91
2018-02-27T01:43:44.986Z,83.91
2018-02-27T01:44:44.901Z,84.19
2018-02-27T01:46:36.708Z,83.44
2018-02-27T01:47:36.611Z,83.25
2018-02-27T01:49:28.326Z,83.44
2018-02-27T01:50:28.252Z,83.15
2018-02-27T01:52:20.095Z,84.09
2018-02-27T01:53:19.925Z,84.66
2018-02-27T01:55:11.671Z,84.94
2018-02-27T01:56:11.586Z,84.75
2018-02-27T01:58:03.318Z,85.79
2018-02-27T01:59:03.233Z,85.70
2018-02-27T02:00:54.973Z,85.22
2018-02-27T02:01:54.898Z,85.13
2018-02-27T02:03:46.627Z,85.70
2018-02-27T02:04:46.537Z,85.79
2018-02-27T02:06:38.289Z,85.70
2018-02-27T02:07:38.217Z,85.60
2018-02-27T02:09:29.969Z,86.07
2018-02-27T02:10:29.885Z,86.17
2018-02-27T02:12:21.640Z,86.83
2018-02-27T02:13:21.555Z,87.02
2018-02-27T02:15:13.317Z,87.02
2018-02-27T02:16:13.230Z,86.17
2018-02-27T02:18:04.969Z,86.64
2018-02-27T02:19:04.897Z,86.83
2018-02-27T02:20:56.658Z,86.83
2018-02-27T02:21:56.558Z,87.02
2018-02-27T02:23:48.423Z,87.77
2018-02-27T02:24:48.327Z,87.49
2018-02-27T02:26:40.072Z,87.58
2018-02-27T02:27:39.975Z,87.58
2018-02-27T02:29:31.694Z,87.68
2018-02-27T02:30:31.618Z,87.77
2018-02-27T02:32:23.356Z,88.05
2018-02-27T02:33:23.269Z,88.05
2018-02-27T02:35:14.989Z,87.86
2018-02-27T02:36:14.914Z,87.11
2018-02-27T02:38:06.650Z,86.36
2018-02-27T02:39:06.559Z,85.41
2018-02-27T02:40:58.278Z,85.13
2018-02-27T02:41:58.205Z,84.47
2018-02-27T02:43:49.949Z,85.22
2018-02-27T02:44:49.848Z,84.75
2018-02-27T02:46:41.619Z,84.75
2018-02-27T02:47:41.543Z,84.85
2018-02-27T02:49:33.275Z,85.51
2018-02-27T02:50:33.188Z,85.04
2018-02-27T02:52:24.952Z,85.79
2018-02-27T02:53:24.859Z,85.79
2018-02-27T02:55:16.589Z,85.70
2018-02-27T02:56:16.511Z,86.26
2018-02-27T02:58:08.316Z,85.98
2018-02-27T02:59:08.201Z,86.07
2018-02-27T03:00:59.940Z,86.92
2018-02-27T03:01:59.878Z,86.73
2018-02-27T03:03:51.625Z,86.73
2018-02-27T03:04:51.537Z,86.92
2018-02-27T03:06:43.257Z,87.49
2018-02-27T03:07:43.228Z,88.05
2018-02-27T03:09:34.914Z,87.77
2018-02-27T03:10:34.820Z,87.77
2018-02-27T03:12:26.614Z,88.24
2018-02-27T03:13:26.473Z,88.24
2018-02-27T03:15:18.202Z,87.77
2018-02-27T03:16:18.114Z,87.86
2018-02-27T03:18:09.840Z,88.24
2018-02-27T03:19:09.789Z,88.05
2018-02-27T03:21:01.527Z,88.01
2018-02-27T03:22:01.442Z,88.24
2018-02-27T03:23:53.215Z,88.43
2018-02-27T03:24:53.134Z,88.85
2018-02-27T03:26:44.901Z,88.62
2018-02-27T03:27:44.818Z,88.90
2018-02-27T03:29:36.548Z,89.42
2018-02-27T03:30:36.509Z,88.71
2018-02-27T03:32:28.209Z,89.32
2018-02-27T03:33:28.185Z,88.67
2018-02-27T03:35:19.885Z,88.95
2018-02-27T03:36:19.806Z,89.42
2018-02-27T03:38:11.565Z,89.14
2018-02-27T03:39:11.480Z,89.42
2018-02-27T03:41:03.279Z,89.42
2018-02-27T03:42:03.200Z,89.14
2018-02-27T03:43:54.918Z,89.14
2018-02-27T03:44:54.958Z,89.23
2018-02-27T03:46:46.587Z,89.23
2018-02-27T03:47:46.501Z,88.95
2018-02-27T03:49:38.227Z,89.23
2018-02-27T03:50:38.145Z,89.51
2018-02-27T03:52:29.911Z,89.42
2018-02-27T03:53:29.838Z,89.23
2018-02-27T03:55:21.528Z,89.61
2018-02-27T03:56:21.456Z,89.32
2018-02-27T03:58:13.262Z,89.61
2018-02-27T03:59:13.112Z,89.61
2018-02-27T04:01:04.875Z,89.42
2018-02-27T04:02:04.804Z,89.79
2018-02-27T04:03:56.551Z,90.08
2018-02-27T04:04:56.459Z,89.70
2018-02-27T04:06:48.181Z,89.98
2018-02-27T04:07:48.102Z,89.98
2018-02-27T04:09:39.832Z,89.98
2018-02-27T04:10:39.740Z,90.08
2018-02-27T04:12:31.462Z,90.17
2018-02-27T04:13:31.389Z,89.98
2018-02-27T04:15:23.220Z,89.89
2018-02-27T04:16:23.130Z,89.98
2018-02-27T04:18:14.882Z,90.55
2018-02-27T04:19:14.809Z,90.45
2018-02-27T04:21:06.624Z,90.92
2018-02-27T04:22:06.548Z,90.73
2018-02-27T04:23:58.261Z,90.73
2018-02-27T04:24:58.183Z,91.11
2018-02-27T04:26:49.923Z,90.83
2018-02-27T04:27:49.844Z,90.36
2018-02-27T04:29:41.572Z,90.73
2018-02-27T04:30:41.493Z,90.83
2018-02-27T04:32:33.244Z,90.64
2018-02-27T04:33:33.157Z,91.20
2018-02-27T04:35:24.924Z,90.92
2018-02-27T04:36:24.825Z,91.30
2018-02-27T04:38:16.577Z,91.77
2018-02-27T04:39:16.496Z,92.24
2018-02-27T04:41:08.231Z,91.77
2018-02-27T04:42:08.143Z,92.52
2018-02-27T04:43:59.929Z,91.86
2018-02-27T04:44:59.866Z,91.86
2018-02-27T04:46:51.625Z,92.24
2018-02-27T04:47:51.530Z,91.96
2018-02-27T04:49:43.339Z,91.96
2018-02-27T04:50:43.266Z,92.15
2018-02-27T04:52:35.000Z,91.86
2018-02-27T04:53:34.915Z,91.67
2018-02-27T04:55:26.666Z,91.58
2018-02-27T04:56:26.560Z,91.58
2018-02-27T04:58:18.306Z,91.49
2018-02-27T04:59:18.226Z,91.77
2018-02-27T05:01:09.963Z,91.49
2018-02-27T05:02:09.874Z,91.58
2018-02-27T05:04:01.595Z,91.49
2018-02-27T05:05:01.514Z,91.67
2018-02-27T05:06:53.251Z,91.67
2018-02-27T05:07:53.159Z,92.33
2018-02-27T05:09:44.909Z,92.05
2018-02-27T05:10:44.831Z,91.86
2018-02-27T05:12:36.562Z,91.96
2018-02-27T05:13:36.467Z,91.96
2018-02-27T05:15:28.196Z,92.05
2018-02-27T05:16:28.113Z,93.28
2018-02-27T05:18:19.848Z,92.62
2018-02-27T05:19:19.763Z,92.90
2018-02-27T05:21:11.496Z,92.80
2018-02-27T05:22:11.414Z,92.99
2018-02-27T05:24:03.150Z,92.62
2018-02-27T05:25:03.066Z,92.80
2018-02-27T05:26:54.811Z,92.80
2018-02-27T05:27:54.717Z,92.90
2018-02-27T05:29:46.443Z,93.18
2018-02-27T05:30:46.365Z,92.80
2018-02-27T05:32:38.111Z,92.71
2018-02-27T05:33:38.016Z,92.80
2018-02-27T05:35:29.763Z,92.80
2018-02-27T05:36:29.682Z,92.90
2018-02-27T05:38:21.416Z,92.99
2018-02-27T05:39:21.330Z,91.96
2018-02-27T05:41:13.067Z,92.24
2018-02-27T05:42:12.986Z,92.05
2018-02-27T05:44:04.716Z,92.15
2018-02-27T05:45:04.628Z,92.33
2018-02-27T05:46:56.350Z,91.67
2018-02-27T05:47:56.267Z,91.96
2018-02-27T05:49:48.008Z,92.05
2018-02-27T05:50:47.917Z,92.15
2018-02-27T05:52:39.632Z,91.96
2018-02-27T05:53:39.560Z,91.96
2018-02-27T05:55:31.314Z,92.24
2018-02-27T05:56:31.244Z,92.10
2018-02-27T05:58:22.967Z,92.10
2018-02-27T05:59:22.890Z,92.19
2018-02-27T06:01:14.639Z,92.19
2018-02-27T06:02:14.550Z,91.53
2018-02-27T06:04:06.308Z,91.72
2018-02-27T06:05:06.209Z,91.06
2018-02-27T06:06:57.942Z,91.35
2018-02-27T06:07:57.863Z,90.59
2018-02-27T06:09:49.615Z,90.97
2018-02-27T06:10:49.557Z,90.59
2018-02-27T06:12:41.305Z,90.59
2018-02-27T06:13:41.228Z,90.97
2018-02-27T06:15:33.000Z,90.31
2018-02-27T06:16:32.875Z,90.50
2018-02-27T06:18:24.805Z,90.41
2018-02-27T06:19:24.540Z,90.69
2018-02-27T06:21:16.277Z,90.69
2018-02-27T06:22:16.201Z,90.59
2018-02-27T06:24:07.947Z,90.59
2018-02-27T06:25:07.835Z,90.41
2018-02-27T06:26:59.798Z,90.97
2018-02-27T06:27:59.731Z,90.31
2018-02-27T06:29:51.501Z,90.97
2018-02-27T06:30:51.417Z,90.97
2018-02-27T06:32:43.164Z,90.50
2018-02-27T06:33:43.088Z,90.78
2018-02-27T06:35:34.842Z,90.78
2018-02-27T06:36:34.752Z,90.59
2018-02-27T06:38:26.486Z,90.59
2018-02-27T06:39:26.412Z,90.41
2018-02-27T06:41:18.239Z,90.41
2018-02-27T06:42:18.142Z,89.56
2018-02-27T06:44:09.915Z,89.18
2018-02-27T06:45:09.791Z,89.47
2018-02-27T06:47:01.693Z,88.62
2018-02-27T06:48:01.616Z,88.71
2018-02-27T06:49:53.360Z,88.71
2018-02-27T06:50:53.262Z,88.34
2018-02-27T06:52:45.000Z,87.68
2018-02-27T06:53:51.185Z,86.73
2018-02-27T06:55:36.737Z,85.27
2018-02-27T06:56:36.614Z,84.99
2018-02-27T06:58:28.383Z,83.67
2018-02-27T06:59:28.292Z,82.54
2018-02-27T07:01:20.056Z,81.22
2018-02-27T07:02:19.982Z,81.31
2018-02-27T07:04:11.758Z,79.90
2018-02-27T07:05:11.624Z,78.86
2018-02-27T07:07:03.366Z,77.45
2018-02-27T07:08:03.293Z,76.60
2018-02-27T07:09:55.030Z,75.38
2018-02-27T07:10:54.945Z,74.19
2018-02-27T07:12:46.665Z,73.25
2018-02-27T07:13:46.597Z,72.40
2018-02-27T07:15:38.375Z,70.70
2018-02-27T07:16:38.259Z,69.57
2018-02-27T07:18:30.081Z,68.82
2018-02-27T07:19:29.929Z,68.44
2018-02-27T07:21:21.702Z,67.49
2018-02-27T07:22:21.625Z,65.80
2018-02-27T07:24:13.414Z,64.76
2018-02-27T07:25:13.340Z,64.20
2018-02-27T07:27:05.088Z,64.39
2018-02-27T07:28:04.998Z,63.91
2018-02-27T07:29:56.757Z,64.95
2018-02-27T07:30:56.668Z,64.14
2018-02-27T07:32:48.428Z,63.47
2018-02-27T07:33:48.346Z,63.19
2018-02-27T07:35:40.119Z,63.00
2018-02-27T07:36:40.014Z,63.10
2018-02-27T07:38:32.852Z,62.53
2018-02-27T07:39:32.682Z,62.53
2018-02-27T07:41:24.438Z,62.43
2018-02-27T07:42:24.384Z,62.25
2018-02-27T07:44:16.118Z,60.74
2018-02-27T07:45:16.038Z,60.83
2018-02-27T07:47:07.817Z,61.30
2018-02-27T07:48:07.707Z,61.58
2018-02-27T07:49:59.450Z,61.40
2018-02-27T07:50:59.384Z,60.64
2018-02-27T07:52:51.133Z,58.79
2018-02-27T07:53:51.047Z,58.03
2018-02-27T07:55:42.962Z,54.57
2018-02-27T07:56:42.879Z,52.87
2018-02-27T07:58:35.655Z,50.72
2018-02-27T07:59:35.578Z,49.28
2018-02-27T08:01:27.383Z,48.93
2018-02-27T08:02:27.310Z,47.89
2018-02-27T08:04:20.081Z,47.25
2018-02-27T08:05:19.999Z,46.21
2018-02-27T08:07:12.805Z,45.83
2018-02-27T08:08:12.704Z,45.27
2018-02-27T08:10:05.490Z,44.51
2018-02-27T08:11:05.416Z,44.21
2018-02-27T08:12:58.193Z,44.11
2018-02-27T08:13:58.124Z,44.87
2018-02-27T08:15:50.893Z,44.60
2018-02-27T08:16:50.830Z,44.70
2018-02-27T08:18:43.635Z,44.70
2018-02-27T08:19:43.559Z,45.06
2018-02-27T08:21:36.324Z,46.00
2018-02-27T08:22:36.261Z,46.00
2018-02-27T08:24:29.037Z,47.86
2018-02-27T08:25:28.967Z,48.05
2018-02-27T08:27:21.738Z,47.86
2018-02-27T08:28:21.673Z,48.71
2018-02-27T08:30:14.447Z,49.38
2018-02-27T08:31:14.386Z,49.35
2018-02-27T08:33:07.138Z,50.48
2018-02-27T08:34:07.071Z,51.05
2018-02-27T08:35:59.832Z,51.99
2018-02-27T08:36:59.758Z,51.71
2018-02-27T08:38:52.562Z,52.34
2018-02-27T08:39:52.456Z,52.53
2018-02-27T08:41:45.223Z,53.19
2018-02-27T08:42:45.145Z,53.85
2018-02-27T08:44:36.983Z,54.33
2018-02-27T08:45:36.903Z,54.80
2018-02-27T08:47:28.850Z,54.51
2018-02-27T08:48:28.779Z,53.76
2018-02-27T08:50:20.767Z,54.14
2018-02-27T08:51:20.666Z,54.51
2018-02-27T08:53:13.424Z,54.51
2018-02-27T08:54:13.358Z,54.51
2018-02-27T08:56:06.119Z,54.99
2018-02-27T08:57:06.045Z,55.01
2018-02-27T08:58:58.807Z,55.20
2018-02-27T08:59:58.739Z,54.51
2018-02-27T09:01:51.518Z,54.07
2018-02-27T09:02:51.437Z,53.57
2018-02-27T09:04:43.180Z,53.97
2018-02-27T09:05:43.107Z,53.59
2018-02-27T09:07:34.895Z,53.31
2018-02-27T09:08:34.813Z,53.22
2018-02-27T09:10:26.551Z,53.22
2018-02-27T09:11:26.486Z,52.84
2018-02-27T09:13:19.241Z,53.13
2018-02-27T09:14:19.162Z,53.78
2018-02-27T09:16:11.003Z,54.07
2018-02-27T09:17:10.915Z,53.41
2018-02-27T09:19:02.720Z,52.75
2018-02-27T09:20:02.646Z,53.13
2018-02-27T09:21:54.547Z,52.37
2018-02-27T09:22:54.468Z,52.75
2018-02-27T09:24:47.220Z,51.62
2018-02-27T09:25:47.154Z,51.71
2018-02-27T09:27:39.913Z,50.98
2018-02-27T09:28:39.836Z,50.60
2018-02-27T09:30:32.590Z,51.17
2018-02-27T09:31:32.511Z,51.26
2018-02-27T09:33:25.273Z,50.42
2018-02-27T09:34:25.187Z,50.13
2018-02-27T09:36:17.940Z,48.90
2018-02-27T09:37:17.871Z,48.34
2018-02-27T09:39:10.656Z,48.52
2018-02-27T09:40:10.574Z,47.96
2018-02-27T09:42:03.323Z,48.62
2018-02-27T09:43:03.257Z,48.71
2018-02-27T09:44:55.196Z,47.39
2018-02-27T09:45:55.149Z,47.02
2018-02-27T09:47:47.901Z,47.58
2018-02-27T09:48:47.814Z,47.49
2018-02-27T09:50:39.621Z,48.34
2018-02-27T09:51:39.558Z,47.96
2018-02-27T09:53:31.307Z,47.04
2018-02-27T09:54:31.248Z,46.94
2018-02-27T09:56:22.987Z,46.36
2018-02-27T09:57:22.921Z,46.19
2018-02-27T09:59:15.708Z,46.09
2018-02-27T10:00:15.624Z,45.72
2018-02-27T10:02:08.401Z,44.98
2018-02-27T10:03:08.320Z,44.70
2018-02-27T10:05:01.099Z,43.95
2018-02-27T10:06:01.018Z,43.57
2018-02-27T10:07:53.797Z,43.28
2018-02-27T10:08:53.729Z,43.19
2018-02-27T10:10:46.512Z,42.71
2018-02-27T10:11:46.436Z,43.12
2018-02-27T10:13:39.211Z,42.08
2018-02-27T10:14:39.301Z,41.60
2018-02-27T10:16:31.949Z,41.60
2018-02-27T10:17:31.881Z,41.89
2018-02-27T10:19:24.674Z,41.60
2018-02-27T10:20:24.591Z,41.22
2018-02-27T10:22:17.201Z,40.75
2018-02-27T10:23:16.381Z,40.37
2018-02-27T10:25:08.172Z,40.37
2018-02-27T10:26:08.100Z,40.19
2018-02-27T10:28:00.878Z,39.43
2018-02-27T10:29:00.856Z,40.00
2018-02-27T10:30:53.640Z,39.90
2018-02-27T10:31:53.570Z,39.88
2018-02-27T10:33:46.363Z,41.03
2018-02-27T10:34:46.289Z,41.32
2018-02-27T10:36:39.276Z,40.94
2018-02-27T10:37:38.158Z,40.84
2018-02-27T10:39:30.155Z,41.22
2018-02-27T10:40:30.066Z,40.75
2018-02-27T10:42:22.857Z,40.35
2018-02-27T10:43:22.789Z,40.35
2018-02-27T10:45:14.729Z,41.02
2018-02-27T10:46:14.675Z,41.58
2018-02-27T10:48:06.548Z,41.96
2018-02-27T10:49:06.479Z,41.86
2018-02-27T10:50:58.325Z,41.96
2018-02-27T10:51:58.265Z,41.86
2018-02-27T10:53:50.171Z,42.05
2018-02-27T10:54:50.105Z,41.96
2018-02-27T10:56:41.952Z,41.51
2018-02-27T10:57:41.882Z,41.70
2018-02-27T10:59:34.656Z,41.60
2018-02-27T11:00:34.590Z,41.13
2018-02-27T11:02:27.363Z,41.03
2018-02-27T11:03:27.300Z,41.22
2018-02-27T11:05:19.108Z,40.75
2018-02-27T11:06:19.046Z,40.84
2018-02-27T11:08:10.821Z,40.28
2018-02-27T11:09:10.748Z,40.09
2018-02-27T11:11:03.517Z,41.03
2018-02-27T11:12:03.450Z,40.56
2018-02-27T11:13:56.244Z,40.19
2018-02-27T11:14:56.152Z,40.26
2018-02-27T11:16:48.918Z,40.92
2018-02-27T11:17:48.856Z,41.67
2018-02-27T11:19:40.722Z,42.81
2018-02-27T11:20:40.682Z,42.15
2018-02-27T11:22:33.403Z,41.67
2018-02-27T11:23:33.437Z,42.05
2018-02-27T11:25:25.355Z,41.86
2018-02-27T11:26:25.247Z,42.05
2018-02-27T11:28:18.003Z,42.24
2018-02-27T11:29:17.935Z,42.15
2018-02-27T11:31:10.732Z,42.62
2018-02-27T11:32:10.803Z,43.00
2018-02-27T11:34:03.413Z,43.38
2018-02-27T11:35:03.339Z,42.62
2018-02-27T11:36:56.111Z,43.38
2018-02-27T11:37:56.035Z,43.57
2018-02-27T11:39:48.860Z,42.71
2018-02-27T11:40:48.783Z,42.62
2018-02-27T11:42:41.652Z,42.71
2018-02-27T11:43:41.584Z,42.62
2018-02-27T11:45:34.385Z,43.00
2018-02-27T11:46:34.301Z,43.19
2018-02-27T11:48:27.066Z,43.00
2018-02-27T11:49:27.024Z,42.62
2018-02-27T11:51:18.757Z,43.00
2018-02-27T11:52:18.683Z,43.09
2018-02-27T11:54:11.482Z,42.62
2018-02-27T11:55:11.404Z,42.62
2018-02-27T11:57:03.205Z,43.07
2018-02-27T11:58:03.125Z,43.45
2018-02-27T11:59:55.059Z,43.16
2018-02-27T12:00:54.988Z,43.26
2018-02-27T12:02:47.766Z,44.02
2018-02-27T12:03:47.688Z,43.45
2018-02-27T12:05:40.481Z,44.30
2018-02-27T12:06:40.396Z,43.92
2018-02-27T12:08:33.307Z,44.11
2018-02-27T12:09:33.313Z,43.83
2018-02-27T12:11:25.068Z,43.83
2018-02-27T12:12:24.987Z,43.73
2018-02-27T12:14:16.766Z,43.54
2018-02-27T12:15:16.674Z,44.21
2018-02-27T12:17:08.436Z,44.87
2018-02-27T12:18:08.347Z,44.96
2018-02-27T12:20:01.095Z,45.15
2018-02-27T12:21:01.062Z,45.53
2018-02-27T12:22:53.797Z,45.72
2018-02-27T12:23:53.707Z,45.43
2018-02-27T12:25:46.480Z,44.77
2018-02-27T12:26:46.395Z,43.54
2018-02-27T12:28:39.182Z,44.39
2018-02-27T12:29:39.198Z,44.02
2018-02-27T12:31:30.871Z,45.06
2018-02-27T12:32:30.810Z,44.87
2018-02-27T12:34:22.553Z,44.49
2018-02-27T12:35:22.474Z,44.96
2018-02-27T12:37:15.224Z,44.58
2018-02-27T12:38:15.416Z,44.49
2018-02-27T12:40:06.927Z,44.77
2018-02-27T12:41:06.842Z,44.49
2018-02-27T12:42:58.620Z,44.02
2018-02-27T12:43:58.511Z,43.45
2018-02-27T12:45:50.313Z,43.83
2018-02-27T12:46:50.311Z,43.83
2018-02-27T12:48:42.017Z,44.02
2018-02-27T12:49:41.936Z,43.38
2018-02-27T12:51:33.713Z,43.07
2018-02-27T12:52:33.640Z,43.26
2018-02-27T12:54:25.401Z,43.35
2018-02-27T12:55:25.317Z,43.35
2018-02-27T12:57:17.081Z,44.13
2018-02-27T12:58:17.015Z,43.09
2018-02-27T13:00:08.825Z,43.09
2018-02-27T13:01:08.746Z,42.43
2018-02-27T13:03:00.579Z,42.24
2018-02-27T13:04:00.677Z,42.34
2018-02-27T13:05:52.411Z,42.71
2018-02-27T13:06:52.274Z,43.00
2018-02-27T13:08:44.034Z,42.81
2018-02-27T13:09:44.606Z,43.09
2018-02-27T13:11:35.709Z,43.19
2018-02-27T13:12:35.625Z,43.09
2018-02-27T13:14:27.626Z,43.19
2018-02-27T13:15:27.542Z,43.54
2018-02-27T13:17:19.304Z,43.83
2018-02-27T13:18:19.233Z,44.11
2018-02-27T13:20:12.046Z,44.30
2018-02-27T13:21:11.957Z,44.30
2018-02-27T13:23:04.707Z,44.11
2018-02-27T13:24:04.635Z,44.30
2018-02-27T13:25:56.403Z,44.49
2018-02-27T13:26:56.316Z,45.25
2018-02-27T13:28:49.190Z,44.68
2018-02-27T13:29:50.898Z,45.43
2018-02-27T13:31:41.864Z,45.43
2018-02-27T13:32:41.806Z,45.15
2018-02-27T13:34:33.514Z,46.00
2018-02-27T13:35:33.471Z,45.15
2018-02-27T13:37:25.212Z,46.09
2018-02-27T13:38:25.134Z,46.09
2018-02-27T13:40:17.881Z,45.90
2018-02-27T13:41:17.811Z,46.19
2018-02-27T13:43:09.598Z,46.28
2018-02-27T13:44:09.476Z,46.85
2018-02-27T13:46:02.243Z,46.94
2018-02-27T13:47:02.176Z,46.94
2018-02-27T13:48:54.942Z,47.23
2018-02-27T13:49:54.857Z,46.28
2018-02-27T13:51:46.831Z,46.47
2018-02-27T13:52:46.728Z,47.04
2018-02-27T13:54:38.481Z,46.94
2018-02-27T13:55:38.470Z,47.42
2018-02-27T13:57:31.331Z,47.42
2018-02-27T13:58:31.122Z,48.08
2018-02-27T14:00:22.859Z,48.24
2018-02-27T14:01:22.779Z,48.71
2018-02-27T14:03:14.666Z,49.09
2018-02-27T14:04:14.577Z,48.81
2018-02-27T14:06:06.416Z,49.38
2018-02-27T14:07:06.256Z,50.04
2018-02-27T14:08:58.016Z,49.47
2018-02-27T14:09:57.930Z,49.21
2018-02-27T14:11:49.696Z,49.59
2018-02-27T14:12:49.604Z,48.83
2018-02-27T14:14:41.389Z,48.83
2018-02-27T14:15:41.299Z,48.93
2018-02-27T14:17:33.054Z,49.68
2018-02-27T14:18:32.974Z,49.97
2018-02-27T14:20:24.725Z,50.63
2018-02-27T14:21:24.646Z,50.53
2018-02-27T14:23:16.416Z,51.10
2018-02-27T14:24:16.322Z,51.01
2018-02-27T14:26:08.065Z,51.76
2018-02-27T14:27:07.999Z,52.04
2018-02-27T14:28:59.816Z,52.23
2018-02-27T14:29:59.729Z,52.33
2018-02-27T14:31:51.560Z,52.30
2018-02-27T14:32:51.488Z,52.96
2018-02-27T14:34:43.242Z,53.53
2018-02-27T14:35:43.151Z,53.34
2018-02-27T14:37:34.907Z,53.75
2018-02-27T14:38:34.836Z,53.65
2018-02-27T14:40:27.616Z,53.81
2018-02-27T14:41:27.528Z,54.19
2018-02-27T14:43:19.282Z,54.75
2018-02-27T14:44:19.215Z,55.42
2018-02-27T14:46:11.972Z,55.89
2018-02-27T14:47:11.888Z,56.36
2018-02-27T14:49:03.646Z,57.21
2018-02-27T14:50:03.559Z,56.84
2018-02-27T14:51:55.294Z,58.15
2018-02-27T14:52:55.221Z,58.34
2018-02-27T14:54:46.982Z,58.34
2018-02-27T14:55:46.900Z,58.53
2018-02-27T14:57:38.644Z,59.19
2018-02-27T14:58:38.572Z,60.05
2018-02-27T15:00:30.345Z,60.89
2018-02-27T15:01:30.239Z,61.18
2018-02-27T15:03:21.982Z,60.71
2018-02-27T15:04:21.933Z,60.71
2018-02-27T15:06:13.670Z,60.14
2018-02-27T15:07:13.577Z,59.48
2018-02-27T15:09:05.324Z,59.29
2018-02-27T15:10:05.250Z,59.10
2018-02-27T15:11:57.001Z,59.29
2018-02-27T15:12:56.922Z,59.48
2018-02-27T15:14:48.677Z,59.38
2018-02-27T15:15:48.591Z,58.72
2018-02-27T15:17:40.351Z,58.53
2018-02-27T15:18:40.280Z,58.82
2018-02-27T15:20:32.112Z,59.10
2018-02-27T15:21:31.944Z,58.82
2018-02-27T15:23:23.693Z,59.29
2018-02-27T15:24:23.639Z,59.19
2018-02-27T15:26:15.361Z,59.10
2018-02-27T15:27:15.272Z,59.19
2018-02-27T15:29:08.016Z,59.48
2018-02-27T15:30:07.996Z,59.48
2018-02-27T15:31:59.680Z,58.82
2018-02-27T15:32:59.642Z,58.53
2018-02-27T15:34:51.873Z,58.15
2018-02-27T15:35:51.785Z,58.25
2018-02-27T15:37:44.584Z,58.15
2018-02-27T15:38:44.476Z,58.34
2018-02-27T15:40:36.332Z,59.00
2018-02-27T15:41:36.128Z,59.00
2018-02-27T15:43:28.865Z,60.39
2018-02-27T15:44:28.799Z,61.99
2018-02-27T15:46:20.593Z,63.41
2018-02-27T15:47:20.508Z,63.60
2018-02-27T15:49:12.276Z,64.83
2018-02-27T15:50:12.190Z,64.73
2018-02-27T15:52:03.906Z,65.96
2018-02-27T15:53:03.825Z,66.34
2018-02-27T15:54:55.638Z,66.81
2018-02-27T15:55:55.576Z,67.00
2018-02-27T15:57:47.289Z,67.57
2018-02-27T15:58:47.208Z,67.38
2018-02-27T16:00:39.021Z,68.23
2018-02-27T16:01:39.176Z,69.45
2018-02-27T16:03:30.715Z,71.53
2018-02-27T16:04:30.662Z,72.09
2018-02-27T16:06:22.578Z,71.72
2018-02-27T16:07:22.441Z,71.25
2018-02-27T16:09:14.185Z,70.68
2018-02-27T16:10:14.153Z,69.73
2018-02-27T16:12:05.847Z,69.73
2018-02-27T16:13:05.761Z,69.35
2018-02-27T16:14:57.549Z,68.88
2018-02-27T16:15:57.478Z,68.51
2018-02-27T16:17:49.263Z,68.41
2018-02-27T16:18:49.166Z,68.04
2018-02-27T16:20:40.891Z,67.28
2018-02-27T16:21:40.854Z,67.09
2018-02-27T16:23:32.679Z,67.00
2018-02-27T16:24:32.598Z,66.34
2018-02-27T16:26:24.449Z,66.15
2018-02-27T16:27:24.365Z,66.43
2018-02-27T16:29:16.156Z,65.96
2018-02-27T16:30:16.071Z,66.24
2018-02-27T16:32:07.826Z,65.77
2018-02-27T16:33:07.739Z,65.48
2018-02-27T16:34:59.472Z,65.11
2018-02-27T16:35:59.414Z,65.30
2018-02-27T16:37:51.138Z,65.20
2018-02-27T16:38:51.050Z,64.92
2018-02-27T16:40:42.844Z,64.36
2018-02-27T16:41:42.775Z,64.45
2018-02-27T16:43:34.489Z,65.20
2018-02-27T16:44:34.412Z,65.11
2018-02-27T16:46:26.164Z,65.58
2018-02-27T16:47:26.066Z,65.96
2018-02-27T16:49:17.812Z,67.09
2018-02-27T16:50:17.769Z,67.66
2018-02-27T16:52:09.590Z,68.51
2018-02-27T16:53:09.387Z,68.70
2018-02-27T16:55:01.165Z,68.79
2018-02-27T16:56:01.082Z,68.79
2018-02-27T16:57:52.874Z,68.88
2018-02-27T16:58:52.795Z,69.04
2018-02-27T17:00:44.601Z,69.04
2018-02-27T17:01:44.510Z,68.95
2018-02-27T17:03:36.342Z,68.95
2018-02-27T17:04:36.258Z,68.76
2018-02-27T17:06:28.191Z,69.35
2018-02-27T17:07:28.104Z,69.60
2018-02-27T17:09:19.844Z,69.70
2018-02-27T17:10:19.760Z,70.49
2018-02-27T17:12:11.526Z,72.62
2018-02-27T17:13:11.430Z,74.22
2018-02-27T17:15:03.193Z,76.49
2018-02-27T17:16:03.103Z,77.15
2018-02-27T17:17:54.987Z,80.36
2018-02-27T17:18:54.902Z,81.58
2018-02-27T17:20:46.822Z,83.65
2018-02-27T17:21:46.709Z,84.32
2018-02-27T17:23:38.458Z,85.83
2018-02-27T17:24:38.386Z,86.21
2018-02-27T17:26:30.147Z,87.24
2018-02-27T17:27:30.059Z,86.77
2018-02-27T17:29:21.849Z,86.87
2018-02-27T17:30:21.771Z,86.40
2018-02-27T17:32:13.581Z,86.21
2018-02-27T17:33:13.459Z,86.30
2018-02-27T17:35:06.362Z,86.49
2018-02-27T17:36:06.071Z,86.02
2018-02-27T17:37:56.897Z,84.88
2018-02-27T17:38:56.801Z,84.60
2018-02-27T17:40:48.545Z,84.03
2018-02-27T17:41:48.449Z,84.03
2018-02-27T17:43:40.276Z,83.94
2018-02-27T17:44:40.258Z,84.03
2018-02-27T17:46:32.105Z,84.22
2018-02-27T17:47:31.891Z,83.47
2018-02-27T17:49:23.683Z,83.18
2018-02-27T17:50:23.648Z,83.75
2018-02-27T17:52:15.374Z,83.65
2018-02-27T17:53:15.327Z,83.65
2018-02-27T17:55:07.075Z,83.56
2018-02-27T17:56:07.034Z,84.03
2018-02-27T17:57:58.742Z,83.94
2018-02-27T17:58:58.667Z,83.75
2018-02-27T18:00:50.507Z,83.56
2018-02-27T18:01:50.425Z,84.03
2018-02-27T18:03:42.202Z,84.13
2018-02-27T18:04:42.117Z,83.84
2018-02-27T18:06:33.990Z,84.03
2018-02-27T18:07:33.801Z,84.03
2018-02-27T18:09:25.566Z,84.22
2018-02-27T18:10:25.492Z,84.22
2018-02-27T18:12:17.181Z,84.51
2018-02-27T18:13:17.112Z,85.07
2018-02-27T18:15:08.904Z,84.94
2018-02-27T18:16:08.792Z,84.75
2018-02-27T18:18:00.585Z,85.41
2018-02-27T18:19:00.499Z,85.60
2018-02-27T18:20:52.319Z,85.88
2018-02-27T18:21:52.225Z,85.60
2018-02-27T18:23:44.183Z,85.97
2018-02-27T18:24:43.935Z,85.97
2018-02-27T18:26:35.653Z,86.44